sensor_id;sensor_type;location;lat;lon;timestamp;temperature;humidity
38866;DHT22;62686;48.984;8.394;2022-10-15T00:01:06;15.40;99.90
38866;DHT22;62686;48.984;8.394;2022-10-15T00:03:35;15.40;99.90
38866;DHT22;62686;48.984;8.394;2022-10-15T00:06:08;15.50;99.90
38866;DHT22;62686;48.984;8.394;2022-10-15T00:08:36;15.40;99.90
38866;DHT22;62686;48.984;8.394;2022-10-15T00:11:08;15.50;99.90
38866;DHT22;62686;48.984;8.394;2022-10-15T00:13:37;15.50;99.90
38866;DHT22;62686;48.984;8.394;2022-10-15T00:16:07;15.50;99.90
38866;DHT22;62686;48.984;8.394;2022-10-15T00:18:36;15.50;99.90
38866;DHT22;62686;48.984;8.394;2022-10-15T00:21:06;15.50;99.90
38866;DHT22;62686;48.984;8.394;2022-10-15T00:23:36;15.60;99.90
38866;DHT22;62686;48.984;8.394;2022-10-15T00:26:06;15.60;99.90
38866;DHT22;62686;48.984;8.394;2022-10-15T00:28:35;15.60;99.90
38866;DHT22;62686;48.984;8.394;2022-10-15T00:31:06;15.60;99.90
38866;DHT22;62686;48.984;8.394;2022-10-15T00:33:35;15.60;99.90
38866;DHT22;62686;48.984;8.394;2022-10-15T00:36:07;15.60;99.90
38866;DHT22;62686;48.984;8.394;2022-10-15T00:38:35;15.60;99.90
38866;DHT22;62686;48.984;8.394;2022-10-15T00:41:05;15.60;99.90
38866;DHT22;62686;48.984;8.394;2022-10-15T00:43:35;15.60;99.90
38866;DHT22;62686;48.984;8.394;2022-10-15T00:46:04;15.60;99.90
38866;DHT22;62686;48.984;8.394;2022-10-15T00:48:33;15.70;99.90
38866;DHT22;62686;48.984;8.394;2022-10-15T00:51:03;15.60;99.90
38866;DHT22;62686;48.984;8.394;2022-10-15T00:53:33;15.70;99.90
38866;DHT22;62686;48.984;8.394;2022-10-15T00:56:01;15.70;99.90
38866;DHT22;62686;48.984;8.394;2022-10-15T00:58:31;15.70;99.90
38866;DHT22;62686;48.984;8.394;2022-10-15T01:00:59;15.70;99.90
38866;DHT22;62686;48.984;8.394;2022-10-15T01:03:27;15.70;99.90
38866;DHT22;62686;48.984;8.394;2022-10-15T01:05:56;15.70;99.90
38866;DHT22;62686;48.984;8.394;2022-10-15T01:08:24;15.70;99.90
38866;DHT22;62686;48.984;8.394;2022-10-15T01:11:12;15.70;99.90
38866;DHT22;62686;48.984;8.394;2022-10-15T01:13:48;15.70;99.90
38866;DHT22;62686;48.984;8.394;2022-10-15T01:16:26;15.70;99.90
38866;DHT22;62686;48.984;8.394;2022-10-15T01:18:58;15.80;99.90
38866;DHT22;62686;48.984;8.394;2022-10-15T01:21:33;15.80;99.90
38866;DHT22;62686;48.984;8.394;2022-10-15T01:24:35;15.80;99.90
38866;DHT22;62686;48.984;8.394;2022-10-15T01:27:24;15.80;99.90
38866;DHT22;62686;48.984;8.394;2022-10-15T01:35:51;15.80;99.90
38866;DHT22;62686;48.984;8.394;2022-10-15T01:38:37;15.80;99.90
38866;DHT22;62686;48.984;8.394;2022-10-15T01:41:12;15.80;99.90
38866;DHT22;62686;48.984;8.394;2022-10-15T01:43:44;15.90;99.90
38866;DHT22;62686;48.984;8.394;2022-10-15T01:46:19;15.90;99.90
38866;DHT22;62686;48.984;8.394;2022-10-15T01:48:53;15.80;99.90
38866;DHT22;62686;48.984;8.394;2022-10-15T01:51:23;15.80;99.90
38866;DHT22;62686;48.984;8.394;2022-10-15T01:53:52;15.90;99.90
38866;DHT22;62686;48.984;8.394;2022-10-15T01:56:22;15.90;99.90
38866;DHT22;62686;48.984;8.394;2022-10-15T01:58:54;15.90;99.90
38866;DHT22;62686;48.984;8.394;2022-10-15T02:01:22;15.90;99.90
38866;DHT22;62686;48.984;8.394;2022-10-15T02:03:52;15.90;99.90
38866;DHT22;62686;48.984;8.394;2022-10-15T02:06:23;15.90;99.90
38866;DHT22;62686;48.984;8.394;2022-10-15T02:09:04;15.90;99.90
38866;DHT22;62686;48.984;8.394;2022-10-15T02:11:40;16.00;99.90
38866;DHT22;62686;48.984;8.394;2022-10-15T02:14:14;15.90;99.90
38866;DHT22;62686;48.984;8.394;2022-10-15T02:16:51;15.90;99.90
38866;DHT22;62686;48.984;8.394;2022-10-15T02:19:29;15.90;99.90
38866;DHT22;62686;48.984;8.394;2022-10-15T02:22:01;15.90;99.90
38866;DHT22;62686;48.984;8.394;2022-10-15T02:24:34;15.90;99.90
38866;DHT22;62686;48.984;8.394;2022-10-15T02:27:03;15.90;99.90
38866;DHT22;62686;48.984;8.394;2022-10-15T02:29:34;16.00;99.90
38866;DHT22;62686;48.984;8.394;2022-10-15T02:32:05;16.00;99.90
38866;DHT22;62686;48.984;8.394;2022-10-15T02:34:35;16.00;99.90
38866;DHT22;62686;48.984;8.394;2022-10-15T02:37:05;16.00;99.90
38866;DHT22;62686;48.984;8.394;2022-10-15T02:39:34;16.00;99.90
38866;DHT22;62686;48.984;8.394;2022-10-15T02:42:02;16.00;99.90
38866;DHT22;62686;48.984;8.394;2022-10-15T02:44:31;16.00;99.90
38866;DHT22;62686;48.984;8.394;2022-10-15T02:46:59;16.00;99.90
38866;DHT22;62686;48.984;8.394;2022-10-15T02:49:27;16.00;99.90
38866;DHT22;62686;48.984;8.394;2022-10-15T02:51:56;16.00;99.90
38866;DHT22;62686;48.984;8.394;2022-10-15T02:54:25;16.00;99.90
38866;DHT22;62686;48.984;8.394;2022-10-15T02:56:53;16.00;99.90
38866;DHT22;62686;48.984;8.394;2022-10-15T02:59:21;16.00;99.90
38866;DHT22;62686;48.984;8.394;2022-10-15T03:01:49;16.00;99.90
38866;DHT22;62686;48.984;8.394;2022-10-15T03:04:17;16.00;99.90
38866;DHT22;62686;48.984;8.394;2022-10-15T03:06:45;16.10;99.90
38866;DHT22;62686;48.984;8.394;2022-10-15T03:09:15;16.00;99.90
38866;DHT22;62686;48.984;8.394;2022-10-15T03:11:43;16.00;99.90
38866;DHT22;62686;48.984;8.394;2022-10-15T03:14:11;16.00;99.90
38866;DHT22;62686;48.984;8.394;2022-10-15T03:16:40;16.10;99.90
38866;DHT22;62686;48.984;8.394;2022-10-15T03:19:08;16.00;99.90
38866;DHT22;62686;48.984;8.394;2022-10-15T03:21:36;16.10;99.90
38866;DHT22;62686;48.984;8.394;2022-10-15T03:24:05;16.00;99.90
38866;DHT22;62686;48.984;8.394;2022-10-15T03:26:34;16.00;99.90
38866;DHT22;62686;48.984;8.394;2022-10-15T03:29:03;16.00;99.90
38866;DHT22;62686;48.984;8.394;2022-10-15T03:31:31;16.00;99.90
38866;DHT22;62686;48.984;8.394;2022-10-15T03:33:59;16.00;99.90
38866;DHT22;62686;48.984;8.394;2022-10-15T03:36:27;16.00;99.90
38866;DHT22;62686;48.984;8.394;2022-10-15T03:38:55;16.00;99.90
38866;DHT22;62686;48.984;8.394;2022-10-15T03:41:23;16.00;99.90
38866;DHT22;62686;48.984;8.394;2022-10-15T03:43:53;16.00;99.90
38866;DHT22;62686;48.984;8.394;2022-10-15T03:46:21;16.00;99.90
38866;DHT22;62686;48.984;8.394;2022-10-15T03:48:49;16.00;99.90
38866;DHT22;62686;48.984;8.394;2022-10-15T03:51:17;16.00;99.90
38866;DHT22;62686;48.984;8.394;2022-10-15T03:53:46;16.00;99.90
38866;DHT22;62686;48.984;8.394;2022-10-15T03:56:14;16.00;99.90
38866;DHT22;62686;48.984;8.394;2022-10-15T03:58:42;16.00;99.90
38866;DHT22;62686;48.984;8.394;2022-10-15T04:01:14;15.90;99.90
38866;DHT22;62686;48.984;8.394;2022-10-15T04:03:43;15.90;99.90
38866;DHT22;62686;48.984;8.394;2022-10-15T04:06:11;16.00;99.90
38866;DHT22;62686;48.984;8.394;2022-10-15T04:08:39;15.90;99.90
38866;DHT22;62686;48.984;8.394;2022-10-15T04:11:07;15.90;99.90
38866;DHT22;62686;48.984;8.394;2022-10-15T04:13:35;15.90;99.90
38866;DHT22;62686;48.984;8.394;2022-10-15T04:16:04;16.00;99.90
38866;DHT22;62686;48.984;8.394;2022-10-15T04:18:34;16.00;99.90
38866;DHT22;62686;48.984;8.394;2022-10-15T04:21:02;15.90;99.90
38866;DHT22;62686;48.984;8.394;2022-10-15T04:23:30;15.90;99.90
38866;DHT22;62686;48.984;8.394;2022-10-15T04:25:58;15.90;99.90
38866;DHT22;62686;48.984;8.394;2022-10-15T04:28:27;15.90;99.90
38866;DHT22;62686;48.984;8.394;2022-10-15T04:30:56;16.00;99.90
38866;DHT22;62686;48.984;8.394;2022-10-15T04:33:25;15.90;99.90
38866;DHT22;62686;48.984;8.394;2022-10-15T04:36:02;15.90;99.90
38866;DHT22;62686;48.984;8.394;2022-10-15T04:38:30;15.90;99.90
38866;DHT22;62686;48.984;8.394;2022-10-15T04:41:00;15.90;99.90
38866;DHT22;62686;48.984;8.394;2022-10-15T04:43:28;15.90;99.90
38866;DHT22;62686;48.984;8.394;2022-10-15T04:45:57;15.90;99.90
38866;DHT22;62686;48.984;8.394;2022-10-15T04:48:27;15.90;99.90
38866;DHT22;62686;48.984;8.394;2022-10-15T04:51:03;15.90;99.90
38866;DHT22;62686;48.984;8.394;2022-10-15T04:53:31;15.90;99.90
38866;DHT22;62686;48.984;8.394;2022-10-15T04:56:01;15.80;99.90
38866;DHT22;62686;48.984;8.394;2022-10-15T04:58:30;15.80;99.90
38866;DHT22;62686;48.984;8.394;2022-10-15T05:01:00;15.80;99.90
38866;DHT22;62686;48.984;8.394;2022-10-15T05:03:28;15.80;99.90
38866;DHT22;62686;48.984;8.394;2022-10-15T05:06:00;15.70;99.90
38866;DHT22;62686;48.984;8.394;2022-10-15T05:08:31;15.70;99.90
38866;DHT22;62686;48.984;8.394;2022-10-15T05:10:59;15.70;99.90
38866;DHT22;62686;48.984;8.394;2022-10-15T05:13:28;15.70;99.90
38866;DHT22;62686;48.984;8.394;2022-10-15T05:15:57;15.70;99.90
38866;DHT22;62686;48.984;8.394;2022-10-15T05:18:34;15.70;99.90
38866;DHT22;62686;48.984;8.394;2022-10-15T05:21:03;15.60;99.90
38866;DHT22;62686;48.984;8.394;2022-10-15T05:23:32;15.60;99.90
38866;DHT22;62686;48.984;8.394;2022-10-15T05:26:02;15.70;99.90
38866;DHT22;62686;48.984;8.394;2022-10-15T05:28:31;15.60;99.90
38866;DHT22;62686;48.984;8.394;2022-10-15T05:31:03;15.60;99.90
38866;DHT22;62686;48.984;8.394;2022-10-15T05:33:32;15.60;99.90
38866;DHT22;62686;48.984;8.394;2022-10-15T05:36:11;15.50;99.90
38866;DHT22;62686;48.984;8.394;2022-10-15T05:38:40;15.50;99.90
38866;DHT22;62686;48.984;8.394;2022-10-15T05:41:09;15.50;99.90
38866;DHT22;62686;48.984;8.394;2022-10-15T05:43:37;15.50;99.90
38866;DHT22;62686;48.984;8.394;2022-10-15T05:46:06;15.50;99.90
38866;DHT22;62686;48.984;8.394;2022-10-15T05:48:34;15.50;99.90
38866;DHT22;62686;48.984;8.394;2022-10-15T05:51:03;15.50;99.90
38866;DHT22;62686;48.984;8.394;2022-10-15T05:53:31;15.50;99.90
38866;DHT22;62686;48.984;8.394;2022-10-15T05:56:01;15.40;99.90
38866;DHT22;62686;48.984;8.394;2022-10-15T05:58:29;15.40;99.90
38866;DHT22;62686;48.984;8.394;2022-10-15T06:01:00;15.40;99.90
38866;DHT22;62686;48.984;8.394;2022-10-15T06:03:29;15.40;99.90
38866;DHT22;62686;48.984;8.394;2022-10-15T06:05:57;15.40;99.90
38866;DHT22;62686;48.984;8.394;2022-10-15T06:08:26;15.40;99.90
38866;DHT22;62686;48.984;8.394;2022-10-15T06:11:00;15.40;99.90
38866;DHT22;62686;48.984;8.394;2022-10-15T06:13:30;15.40;99.90
38866;DHT22;62686;48.984;8.394;2022-10-15T06:15:58;15.50;99.90
38866;DHT22;62686;48.984;8.394;2022-10-15T06:18:26;15.50;99.90
38866;DHT22;62686;48.984;8.394;2022-10-15T06:20:54;15.50;99.90
38866;DHT22;62686;48.984;8.394;2022-10-15T06:23:23;15.50;99.90
38866;DHT22;62686;48.984;8.394;2022-10-15T06:25:51;15.60;99.90
38866;DHT22;62686;48.984;8.394;2022-10-15T06:28:19;15.60;99.90
38866;DHT22;62686;48.984;8.394;2022-10-15T06:30:49;15.60;99.90
38866;DHT22;62686;48.984;8.394;2022-10-15T06:33:17;15.60;99.90
38866;DHT22;62686;48.984;8.394;2022-10-15T06:35:45;15.70;99.90
38866;DHT22;62686;48.984;8.394;2022-10-15T06:38:13;15.70;99.90
38866;DHT22;62686;48.984;8.394;2022-10-15T06:40:41;15.70;99.90
38866;DHT22;62686;48.984;8.394;2022-10-15T06:43:10;15.70;99.90
38866;DHT22;62686;48.984;8.394;2022-10-15T06:45:40;15.70;99.90
38866;DHT22;62686;48.984;8.394;2022-10-15T06:48:09;15.70;99.90
38866;DHT22;62686;48.984;8.394;2022-10-15T06:50:39;15.70;99.90
38866;DHT22;62686;48.984;8.394;2022-10-15T06:53:07;15.70;99.90
38866;DHT22;62686;48.984;8.394;2022-10-15T06:55:35;15.70;99.90
38866;DHT22;62686;48.984;8.394;2022-10-15T06:58:06;15.70;99.90
38866;DHT22;62686;48.984;8.394;2022-10-15T07:00:34;15.80;99.90
38866;DHT22;62686;48.984;8.394;2022-10-15T07:03:03;15.90;99.90
38866;DHT22;62686;48.984;8.394;2022-10-15T07:05:33;15.90;99.90
38866;DHT22;62686;48.984;8.394;2022-10-15T07:08:01;15.90;99.90
38866;DHT22;62686;48.984;8.394;2022-10-15T07:10:29;16.00;99.90
38866;DHT22;62686;48.984;8.394;2022-10-15T07:12:58;15.90;99.90
38866;DHT22;62686;48.984;8.394;2022-10-15T07:15:27;15.90;99.90
38866;DHT22;62686;48.984;8.394;2022-10-15T07:17:56;15.90;99.90
38866;DHT22;62686;48.984;8.394;2022-10-15T07:20:28;15.90;99.90
38866;DHT22;62686;48.984;8.394;2022-10-15T07:22:59;15.90;99.90
38866;DHT22;62686;48.984;8.394;2022-10-15T07:25:27;15.90;99.90
38866;DHT22;62686;48.984;8.394;2022-10-15T07:27:55;15.90;99.90
38866;DHT22;62686;48.984;8.394;2022-10-15T07:30:24;15.90;99.90
38866;DHT22;62686;48.984;8.394;2022-10-15T07:32:54;16.00;99.90
38866;DHT22;62686;48.984;8.394;2022-10-15T07:35:23;16.00;99.90
38866;DHT22;62686;48.984;8.394;2022-10-15T07:37:51;16.00;99.90
38866;DHT22;62686;48.984;8.394;2022-10-15T07:40:21;16.00;99.90
38866;DHT22;62686;48.984;8.394;2022-10-15T07:42:51;16.10;99.90
38866;DHT22;62686;48.984;8.394;2022-10-15T07:45:20;16.10;99.90
38866;DHT22;62686;48.984;8.394;2022-10-15T07:47:48;16.10;99.90
38866;DHT22;62686;48.984;8.394;2022-10-15T07:50:16;16.10;99.90
38866;DHT22;62686;48.984;8.394;2022-10-15T07:52:45;16.20;99.90
38866;DHT22;62686;48.984;8.394;2022-10-15T07:55:13;16.20;99.90
38866;DHT22;62686;48.984;8.394;2022-10-15T07:57:42;16.20;99.90
38866;DHT22;62686;48.984;8.394;2022-10-15T08:00:11;16.20;99.90
38866;DHT22;62686;48.984;8.394;2022-10-15T08:02:39;16.30;99.90
38866;DHT22;62686;48.984;8.394;2022-10-15T08:05:08;16.40;99.90
38866;DHT22;62686;48.984;8.394;2022-10-15T08:07:36;16.30;99.90
38866;DHT22;62686;48.984;8.394;2022-10-15T08:10:05;16.30;99.90
38866;DHT22;62686;48.984;8.394;2022-10-15T08:12:33;16.40;99.90
38866;DHT22;62686;48.984;8.394;2022-10-15T08:15:04;16.40;99.90
38866;DHT22;62686;48.984;8.394;2022-10-15T08:17:32;16.40;99.90
38866;DHT22;62686;48.984;8.394;2022-10-15T08:20:00;16.50;99.90
38866;DHT22;62686;48.984;8.394;2022-10-15T08:22:28;16.60;99.90
38866;DHT22;62686;48.984;8.394;2022-10-15T08:24:56;16.60;99.90
38866;DHT22;62686;48.984;8.394;2022-10-15T08:27:25;16.60;99.90
38866;DHT22;62686;48.984;8.394;2022-10-15T08:29:53;16.60;99.90
38866;DHT22;62686;48.984;8.394;2022-10-15T08:32:23;16.60;99.90
38866;DHT22;62686;48.984;8.394;2022-10-15T08:34:51;16.60;99.90
38866;DHT22;62686;48.984;8.394;2022-10-15T08:37:19;16.60;99.90
38866;DHT22;62686;48.984;8.394;2022-10-15T08:39:47;16.70;99.90
38866;DHT22;62686;48.984;8.394;2022-10-15T08:42:18;16.70;99.90
38866;DHT22;62686;48.984;8.394;2022-10-15T08:44:52;16.70;99.90
38866;DHT22;62686;48.984;8.394;2022-10-15T08:47:28;16.70;99.90
38866;DHT22;62686;48.984;8.394;2022-10-15T08:50:01;16.70;99.90
38866;DHT22;62686;48.984;8.394;2022-10-15T08:52:37;16.60;99.90
38866;DHT22;62686;48.984;8.394;2022-10-15T08:55:09;16.50;99.90
38866;DHT22;62686;48.984;8.394;2022-10-15T08:57:43;16.50;99.90
38866;DHT22;62686;48.984;8.394;2022-10-15T09:00:17;16.40;99.90
38866;DHT22;62686;48.984;8.394;2022-10-15T09:02:53;16.40;99.90
38866;DHT22;62686;48.984;8.394;2022-10-15T09:05:31;16.50;99.90
38866;DHT22;62686;48.984;8.394;2022-10-15T09:08:07;16.50;99.90
38866;DHT22;62686;48.984;8.394;2022-10-15T09:10:44;16.50;99.90
38866;DHT22;62686;48.984;8.394;2022-10-15T09:13:17;16.60;99.90
38866;DHT22;62686;48.984;8.394;2022-10-15T09:15:50;16.60;99.90
38866;DHT22;62686;48.984;8.394;2022-10-15T09:18:23;16.60;99.90
38866;DHT22;62686;48.984;8.394;2022-10-15T09:20:53;16.70;99.90
38866;DHT22;62686;48.984;8.394;2022-10-15T09:23:23;16.90;99.90
38866;DHT22;62686;48.984;8.394;2022-10-15T09:25:58;17.20;99.90
38866;DHT22;62686;48.984;8.394;2022-10-15T09:28:36;17.60;99.90
38866;DHT22;62686;48.984;8.394;2022-10-15T09:31:08;17.80;96.90
38866;DHT22;62686;48.984;8.394;2022-10-15T09:33:41;17.90;93.20
38866;DHT22;62686;48.984;8.394;2022-10-15T09:36:22;18.20;93.30
38866;DHT22;62686;48.984;8.394;2022-10-15T09:39:00;18.40;75.40
38866;DHT22;62686;48.984;8.394;2022-10-15T09:41:36;18.40;72.60
38866;DHT22;62686;48.984;8.394;2022-10-15T09:44:10;18.50;58.80
38866;DHT22;62686;48.984;8.394;2022-10-15T09:46:45;18.60;71.20
38866;DHT22;62686;48.984;8.394;2022-10-15T09:49:16;18.80;71.00
38866;DHT22;62686;48.984;8.394;2022-10-15T09:51:51;18.80;54.00
38866;DHT22;62686;48.984;8.394;2022-10-15T09:54:27;18.70;47.80
38866;DHT22;62686;48.984;8.394;2022-10-15T09:56:59;18.70;61.30
38866;DHT22;62686;48.984;8.394;2022-10-15T09:59:27;18.60;56.60
38866;DHT22;62686;48.984;8.394;2022-10-15T10:01:59;18.40;55.30
38866;DHT22;62686;48.984;8.394;2022-10-15T10:04:30;18.30;66.70
38866;DHT22;62686;48.984;8.394;2022-10-15T10:07:01;18.30;69.80
38866;DHT22;62686;48.984;8.394;2022-10-15T10:09:32;18.40;68.30
38866;DHT22;62686;48.984;8.394;2022-10-15T10:12:03;18.50;59.00
38866;DHT22;62686;48.984;8.394;2022-10-15T10:14:34;18.50;59.10
38866;DHT22;62686;48.984;8.394;2022-10-15T10:17:05;18.30;57.30
38866;DHT22;62686;48.984;8.394;2022-10-15T10:19:36;18.20;66.60
38866;DHT22;62686;48.984;8.394;2022-10-15T10:22:14;18.30;71.80
38866;DHT22;62686;48.984;8.394;2022-10-15T10:24:44;18.20;71.40
38866;DHT22;62686;48.984;8.394;2022-10-15T10:27:21;18.30;67.60
38866;DHT22;62686;48.984;8.394;2022-10-15T10:29:54;18.50;75.70
38866;DHT22;62686;48.984;8.394;2022-10-15T10:32:27;18.80;56.10
38866;DHT22;62686;48.984;8.394;2022-10-15T10:34:59;19.20;43.20
38866;DHT22;62686;48.984;8.394;2022-10-15T10:37:28;19.60;42.30
38866;DHT22;62686;48.984;8.394;2022-10-15T10:40:21;19.70;27.80
38866;DHT22;62686;48.984;8.394;2022-10-15T10:43:09;19.90;1.20
38866;DHT22;62686;48.984;8.394;2022-10-15T10:45:37;20.10;8.50
38866;DHT22;62686;48.984;8.394;2022-10-15T10:48:19;20.30;1.00
38866;DHT22;62686;48.984;8.394;2022-10-15T10:51:01;20.30;1.00
38866;DHT22;62686;48.984;8.394;2022-10-15T10:53:31;20.30;1.00
38866;DHT22;62686;48.984;8.394;2022-10-15T10:56:03;20.70;1.00
38866;DHT22;62686;48.984;8.394;2022-10-15T10:58:32;21.40;1.00
38866;DHT22;62686;48.984;8.394;2022-10-15T11:01:01;21.40;1.00
38866;DHT22;62686;48.984;8.394;2022-10-15T11:03:33;21.30;1.00
38866;DHT22;62686;48.984;8.394;2022-10-15T11:06:19;21.30;1.00
38866;DHT22;62686;48.984;8.394;2022-10-15T11:09:04;21.20;1.00
38866;DHT22;62686;48.984;8.394;2022-10-15T11:11:43;21.10;1.00
38866;DHT22;62686;48.984;8.394;2022-10-15T11:14:21;20.90;1.00
38866;DHT22;62686;48.984;8.394;2022-10-15T11:16:59;20.50;1.00
38866;DHT22;62686;48.984;8.394;2022-10-15T11:19:37;20.00;1.00
38866;DHT22;62686;48.984;8.394;2022-10-15T11:22:42;19.50;1.00
38866;DHT22;62686;48.984;8.394;2022-10-15T11:25:26;19.30;1.00
38866;DHT22;62686;48.984;8.394;2022-10-15T11:28:06;19.30;1.00
38866;DHT22;62686;48.984;8.394;2022-10-15T11:30:46;19.20;1.00
38866;DHT22;62686;48.984;8.394;2022-10-15T11:33:41;19.10;1.00
38866;DHT22;62686;48.984;8.394;2022-10-15T11:36:30;19.10;7.10
38866;DHT22;62686;48.984;8.394;2022-10-15T11:39:17;19.00;2.00
38866;DHT22;62686;48.984;8.394;2022-10-15T11:41:55;19.00;1.00
38866;DHT22;62686;48.984;8.394;2022-10-15T11:44:34;19.00;1.00
38866;DHT22;62686;48.984;8.394;2022-10-15T11:47:25;19.10;1.00
38866;DHT22;62686;48.984;8.394;2022-10-15T11:50:11;19.10;1.00
38866;DHT22;62686;48.984;8.394;2022-10-15T11:52:51;19.20;1.00
38866;DHT22;62686;48.984;8.394;2022-10-15T11:55:27;19.30;1.00
38866;DHT22;62686;48.984;8.394;2022-10-15T11:58:00;19.50;1.00
38866;DHT22;62686;48.984;8.394;2022-10-15T12:00:34;19.50;1.00
38866;DHT22;62686;48.984;8.394;2022-10-15T12:03:06;19.50;1.00
38866;DHT22;62686;48.984;8.394;2022-10-15T12:05:42;19.50;1.00
38866;DHT22;62686;48.984;8.394;2022-10-15T12:08:12;19.60;1.00
38866;DHT22;62686;48.984;8.394;2022-10-15T12:11:06;19.60;1.00
38866;DHT22;62686;48.984;8.394;2022-10-15T12:13:40;19.50;1.00
38866;DHT22;62686;48.984;8.394;2022-10-15T12:16:19;19.40;1.00
38866;DHT22;62686;48.984;8.394;2022-10-15T12:18:52;19.40;1.00
38866;DHT22;62686;48.984;8.394;2022-10-15T12:21:34;19.50;1.00
38866;DHT22;62686;48.984;8.394;2022-10-15T12:24:04;19.40;1.00
38866;DHT22;62686;48.984;8.394;2022-10-15T12:26:37;19.20;1.00
38866;DHT22;62686;48.984;8.394;2022-10-15T12:29:18;18.90;1.00
38866;DHT22;62686;48.984;8.394;2022-10-15T12:31:48;18.80;19.00
38866;DHT22;62686;48.984;8.394;2022-10-15T12:34:27;18.60;16.90
38866;DHT22;62686;48.984;8.394;2022-10-15T12:37:00;18.50;29.50
38866;DHT22;62686;48.984;8.394;2022-10-15T12:39:29;18.40;33.90
38866;DHT22;62686;48.984;8.394;2022-10-15T12:42:26;18.30;32.60
38866;DHT22;62686;48.984;8.394;2022-10-15T12:44:55;18.30;38.20
38866;DHT22;62686;48.984;8.394;2022-10-15T12:47:46;18.50;42.50
38866;DHT22;62686;48.984;8.394;2022-10-15T12:50:19;18.70;25.00
38866;DHT22;62686;48.984;8.394;2022-10-15T12:52:56;18.70;24.20
38866;DHT22;62686;48.984;8.394;2022-10-15T12:55:27;18.70;10.90
38866;DHT22;62686;48.984;8.394;2022-10-15T12:58:00;18.70;8.90
38866;DHT22;62686;48.984;8.394;2022-10-15T13:00:37;18.40;26.40
38866;DHT22;62686;48.984;8.394;2022-10-15T13:03:30;18.20;27.00
38866;DHT22;62686;48.984;8.394;2022-10-15T13:06:31;18.00;32.30
38866;DHT22;62686;48.984;8.394;2022-10-15T13:09:16;17.90;43.10
38866;DHT22;62686;48.984;8.394;2022-10-15T13:11:49;18.00;35.90
38866;DHT22;62686;48.984;8.394;2022-10-15T13:14:29;18.00;42.60
38866;DHT22;62686;48.984;8.394;2022-10-15T13:17:00;18.10;29.20
38866;DHT22;62686;48.984;8.394;2022-10-15T13:19:32;18.10;34.70
38866;DHT22;62686;48.984;8.394;2022-10-15T13:22:03;17.90;44.50
38866;DHT22;62686;48.984;8.394;2022-10-15T13:24:39;17.70;50.40
38866;DHT22;62686;48.984;8.394;2022-10-15T13:27:14;17.50;57.40
38866;DHT22;62686;48.984;8.394;2022-10-15T13:29:57;17.40;71.20
38866;DHT22;62686;48.984;8.394;2022-10-15T13:32:27;17.20;80.70
38866;DHT22;62686;48.984;8.394;2022-10-15T13:34:57;17.20;86.10
38866;DHT22;62686;48.984;8.394;2022-10-15T13:37:29;17.10;89.00
38866;DHT22;62686;48.984;8.394;2022-10-15T13:39:58;16.90;92.40
38866;DHT22;62686;48.984;8.394;2022-10-15T13:42:27;16.80;94.40
38866;DHT22;62686;48.984;8.394;2022-10-15T13:44:59;16.70;95.30
38866;DHT22;62686;48.984;8.394;2022-10-15T13:47:30;16.70;95.40
38866;DHT22;62686;48.984;8.394;2022-10-15T13:50:13;16.60;96.60
38866;DHT22;62686;48.984;8.394;2022-10-15T13:52:43;16.50;97.80
38866;DHT22;62686;48.984;8.394;2022-10-15T13:55:17;16.60;98.80
38866;DHT22;62686;48.984;8.394;2022-10-15T13:57:46;16.70;99.30
38866;DHT22;62686;48.984;8.394;2022-10-15T14:00:23;16.70;99.40
38866;DHT22;62686;48.984;8.394;2022-10-15T14:03:22;16.80;98.70
38866;DHT22;62686;48.984;8.394;2022-10-15T14:05:52;16.70;97.60
38866;DHT22;62686;48.984;8.394;2022-10-15T14:08:23;16.70;96.40
38866;DHT22;62686;48.984;8.394;2022-10-15T14:10:53;16.70;97.00
38866;DHT22;62686;48.984;8.394;2022-10-15T14:13:22;16.70;97.40
38866;DHT22;62686;48.984;8.394;2022-10-15T14:15:57;16.60;97.50
38866;DHT22;62686;48.984;8.394;2022-10-15T14:18:30;16.70;98.80
38866;DHT22;62686;48.984;8.394;2022-10-15T14:21:00;16.70;99.40
38866;DHT22;62686;48.984;8.394;2022-10-15T14:23:28;16.70;99.40
38866;DHT22;62686;48.984;8.394;2022-10-15T14:28:50;16.80;99.10
38866;DHT22;62686;48.984;8.394;2022-10-15T14:31:30;16.80;98.50
38866;DHT22;62686;48.984;8.394;2022-10-15T14:33:59;16.80;97.90
38866;DHT22;62686;48.984;8.394;2022-10-15T14:36:29;16.80;98.10
38866;DHT22;62686;48.984;8.394;2022-10-15T14:39:17;16.80;98.10
38866;DHT22;62686;48.984;8.394;2022-10-15T14:41:57;16.80;98.80
38866;DHT22;62686;48.984;8.394;2022-10-15T14:44:39;16.90;99.80
38866;DHT22;62686;48.984;8.394;2022-10-15T14:47:18;16.80;99.90
38866;DHT22;62686;48.984;8.394;2022-10-15T14:49:47;16.80;99.30
38866;DHT22;62686;48.984;8.394;2022-10-15T14:52:17;16.70;99.40
38866;DHT22;62686;48.984;8.394;2022-10-15T14:54:58;16.70;99.80
38866;DHT22;62686;48.984;8.394;2022-10-15T14:57:30;16.60;99.90
38866;DHT22;62686;48.984;8.394;2022-10-15T15:00:02;16.50;99.90
38866;DHT22;62686;48.984;8.394;2022-10-15T15:02:32;16.40;99.90
38866;DHT22;62686;48.984;8.394;2022-10-15T15:05:07;16.50;99.90
38866;DHT22;62686;48.984;8.394;2022-10-15T15:07:43;16.50;99.90
38866;DHT22;62686;48.984;8.394;2022-10-15T15:10:11;16.50;99.90
38866;DHT22;62686;48.984;8.394;2022-10-15T15:12:49;16.50;99.90
38866;DHT22;62686;48.984;8.394;2022-10-15T15:15:19;16.50;99.90
38866;DHT22;62686;48.984;8.394;2022-10-15T15:17:49;16.50;99.90
38866;DHT22;62686;48.984;8.394;2022-10-15T15:20:18;16.60;99.90
38866;DHT22;62686;48.984;8.394;2022-10-15T15:22:47;16.60;99.90
38866;DHT22;62686;48.984;8.394;2022-10-15T15:25:18;16.50;99.90
38866;DHT22;62686;48.984;8.394;2022-10-15T15:27:47;16.50;99.90
38866;DHT22;62686;48.984;8.394;2022-10-15T15:30:17;16.50;99.90
38866;DHT22;62686;48.984;8.394;2022-10-15T15:32:45;16.40;99.90
38866;DHT22;62686;48.984;8.394;2022-10-15T15:35:27;16.40;99.90
38866;DHT22;62686;48.984;8.394;2022-10-15T15:37:57;16.50;99.90
38866;DHT22;62686;48.984;8.394;2022-10-15T15:40:25;16.50;99.90
38866;DHT22;62686;48.984;8.394;2022-10-15T15:42:53;16.50;99.90
38866;DHT22;62686;48.984;8.394;2022-10-15T15:45:24;16.50;99.90
38866;DHT22;62686;48.984;8.394;2022-10-15T15:47:53;16.50;99.90
38866;DHT22;62686;48.984;8.394;2022-10-15T15:50:22;16.50;98.50
38866;DHT22;62686;48.984;8.394;2022-10-15T15:52:51;16.50;98.20
38866;DHT22;62686;48.984;8.394;2022-10-15T15:55:19;16.50;97.20
38866;DHT22;62686;48.984;8.394;2022-10-15T15:57:47;16.40;97.70
38866;DHT22;62686;48.984;8.394;2022-10-15T16:00:16;16.40;97.20
38866;DHT22;62686;48.984;8.394;2022-10-15T16:02:44;16.40;97.70
38866;DHT22;62686;48.984;8.394;2022-10-15T16:05:14;16.40;95.50
38866;DHT22;62686;48.984;8.394;2022-10-15T16:07:43;16.30;95.20
38866;DHT22;62686;48.984;8.394;2022-10-15T16:10:12;16.30;93.30
38866;DHT22;62686;48.984;8.394;2022-10-15T16:12:41;16.30;95.10